sensor_id;sensor_type;location;lat;lon;timestamp;P1;durP1;ratioP1;P2;durP2;ratioP2
17564;SDS011;62994;52.126;5.596;2022-08-19T00:01:55;8.90;;;8.40;;
17564;SDS011;62994;52.126;5.596;2022-08-19T00:04:25;9.55;;;9.07;;
17564;SDS011;62994;52.126;5.596;2022-08-19T00:06:53;9.68;;;9.07;;
17564;SDS011;62994;52.126;5.596;2022-08-19T00:09:21;9.32;;;8.82;;
17564;SDS011;62994;52.126;5.596;2022-08-19T00:11:50;8.68;;;8.27;;
17564;SDS011;62994;52.126;5.596;2022-08-19T00:14:19;8.43;;;8.02;;
17564;SDS011;62994;52.126;5.596;2022-08-19T00:16:47;9.18;;;8.68;;
17564;SDS011;62994;52.126;5.596;2022-08-19T00:19:16;8.85;;;8.40;;
17564;SDS011;62994;52.126;5.596;2022-08-19T00:21:43;8.68;;;8.27;;
17564;SDS011;62994;52.126;5.596;2022-08-19T00:24:11;8.75;;;8.30;;
17564;SDS011;62994;52.126;5.596;2022-08-19T00:26:39;8.55;;;8.20;;
17564;SDS011;62994;52.126;5.596;2022-08-19T00:29:08;8.73;;;8.30;;
17564;SDS011;62994;52.126;5.596;2022-08-19T00:31:38;8.40;;;8.00;;
17564;SDS011;62994;52.126;5.596;2022-08-19T00:34:06;8.40;;;8.00;;
17564;SDS011;62994;52.126;5.596;2022-08-19T00:36:33;9.02;;;8.38;;
17564;SDS011;62994;52.126;5.596;2022-08-19T00:39:00;8.10;;;7.80;;
17564;SDS011;62994;52.126;5.596;2022-08-19T00:41:27;8.40;;;7.95;;
17564;SDS011;62994;52.126;5.596;2022-08-19T00:43:58;8.50;;;8.10;;
17564;SDS011;62994;52.126;5.596;2022-08-19T00:46:28;8.70;;;8.30;;
17564;SDS011;62994;52.126;5.596;2022-08-19T00:48:57;9.48;;;8.88;;
17564;SDS011;62994;52.126;5.596;2022-08-19T00:51:24;9.27;;;8.77;;
17564;SDS011;62994;52.126;5.596;2022-08-19T00:53:53;9.63;;;8.93;;
17564;SDS011;62994;52.126;5.596;2022-08-19T00:56:21;9.50;;;8.73;;
17564;SDS011;62994;52.126;5.596;2022-08-19T00:58:48;9.25;;;8.75;;
17564;SDS011;62994;52.126;5.596;2022-08-19T01:01:15;10.30;;;9.60;;
17564;SDS011;62994;52.126;5.596;2022-08-19T01:03:42;9.15;;;8.70;;
17564;SDS011;62994;52.126;5.596;2022-08-19T01:06:10;10.43;;;9.65;;
17564;SDS011;62994;52.126;5.596;2022-08-19T01:08:38;9.93;;;9.43;;
17564;SDS011;62994;52.126;5.596;2022-08-19T01:11:05;10.55;;;10.00;;
17564;SDS011;62994;52.126;5.596;2022-08-19T01:13:33;9.27;;;8.80;;
17564;SDS011;62994;52.126;5.596;2022-08-19T01:16:02;9.43;;;9.00;;
17564;SDS011;62994;52.126;5.596;2022-08-19T01:18:32;10.13;;;9.38;;
17564;SDS011;62994;52.126;5.596;2022-08-19T01:21:06;9.38;;;8.80;;
17564;SDS011;62994;52.126;5.596;2022-08-19T01:23:38;9.07;;;8.57;;
17564;SDS011;62994;52.126;5.596;2022-08-19T01:26:12;8.68;;;8.27;;
17564;SDS011;62994;52.126;5.596;2022-08-19T01:28:41;9.55;;;9.07;;
17564;SDS011;62994;52.126;5.596;2022-08-19T01:31:10;10.38;;;9.57;;
17564;SDS011;62994;52.126;5.596;2022-08-19T01:33:38;10.10;;;9.30;;
17564;SDS011;62994;52.126;5.596;2022-08-19T01:36:07;10.05;;;9.35;;
17564;SDS011;62994;52.126;5.596;2022-08-19T01:38:36;10.23;;;9.73;;
17564;SDS011;62994;52.126;5.596;2022-08-19T01:41:08;10.32;;;9.68;;
17564;SDS011;62994;52.126;5.596;2022-08-19T01:43:36;8.88;;;8.38;;
17564;SDS011;62994;52.126;5.596;2022-08-19T01:46:03;8.90;;;8.50;;
17564;SDS011;62994;52.126;5.596;2022-08-19T01:48:32;9.80;;;9.20;;
17564;SDS011;62994;52.126;5.596;2022-08-19T01:51:00;8.80;;;8.30;;
17564;SDS011;62994;52.126;5.596;2022-08-19T01:53:27;8.40;;;7.90;;
17564;SDS011;62994;52.126;5.596;2022-08-19T01:55:56;9.48;;;8.95;;
17564;SDS011;62994;52.126;5.596;2022-08-19T01:58:24;9.02;;;8.63;;
17564;SDS011;62994;52.126;5.596;2022-08-19T02:00:55;9.68;;;9.10;;
17564;SDS011;62994;52.126;5.596;2022-08-19T02:03:22;9.73;;;8.25;;
17564;SDS011;62994;52.126;5.596;2022-08-19T02:05:53;8.00;;;7.70;;
17564;SDS011;62994;52.126;5.596;2022-08-19T02:08:24;9.45;;;8.90;;
17564;SDS011;62994;52.126;5.596;2022-08-19T02:10:51;8.73;;;8.23;;
17564;SDS011;62994;52.126;5.596;2022-08-19T02:13:20;8.88;;;8.43;;
17564;SDS011;62994;52.126;5.596;2022-08-19T02:15:48;8.88;;;8.48;;
17564;SDS011;62994;52.126;5.596;2022-08-19T02:18:15;9.20;;;8.70;;
17564;SDS011;62994;52.126;5.596;2022-08-19T02:20:42;8.52;;;8.20;;
17564;SDS011;62994;52.126;5.596;2022-08-19T02:23:12;8.80;;;8.40;;
17564;SDS011;62994;52.126;5.596;2022-08-19T02:25:39;8.60;;;8.20;;
17564;SDS011;62994;52.126;5.596;2022-08-19T02:28:07;8.55;;;8.00;;
17564;SDS011;62994;52.126;5.596;2022-08-19T02:30:35;8.73;;;8.23;;
17564;SDS011;62994;52.126;5.596;2022-08-19T02:33:03;8.75;;;8.15;;
17564;SDS011;62994;52.126;5.596;2022-08-19T02:35:30;9.05;;;8.63;;
17564;SDS011;62994;52.126;5.596;2022-08-19T02:37:58;8.35;;;7.82;;
17564;SDS011;62994;52.126;5.596;2022-08-19T02:40:47;8.18;;;7.78;;
17564;SDS011;62994;52.126;5.596;2022-08-19T02:43:16;9.05;;;8.65;;
17564;SDS011;62994;52.126;5.596;2022-08-19T02:45:46;9.25;;;8.75;;
17564;SDS011;62994;52.126;5.596;2022-08-19T02:48:15;8.20;;;7.70;;
17564;SDS011;62994;52.126;5.596;2022-08-19T02:50:43;8.70;;;8.25;;
17564;SDS011;62994;52.126;5.596;2022-08-19T02:53:10;9.10;;;8.50;;
17564;SDS011;62994;52.126;5.596;2022-08-19T02:55:42;9.00;;;8.45;;
17564;SDS011;62994;52.126;5.596;2022-08-19T02:58:10;7.70;;;7.30;;
17564;SDS011;62994;52.126;5.596;2022-08-19T03:00:41;8.00;;;7.50;;
17564;SDS011;62994;52.126;5.596;2022-08-19T03:03:11;7.35;;;7.05;;
17564;SDS011;62994;52.126;5.596;2022-08-19T03:05:39;7.03;;;6.70;;
17564;SDS011;62994;52.126;5.596;2022-08-19T03:08:06;7.30;;;7.00;;
17564;SDS011;62994;52.126;5.596;2022-08-19T03:10:39;8.02;;;7.38;;
17564;SDS011;62994;52.126;5.596;2022-08-19T03:13:09;6.65;;;6.35;;
17564;SDS011;62994;52.126;5.596;2022-08-19T03:15:38;8.00;;;7.40;;
17564;SDS011;62994;52.126;5.596;2022-08-19T03:18:06;7.40;;;6.90;;
17564;SDS011;62994;52.126;5.596;2022-08-19T03:20:35;7.82;;;7.43;;
17564;SDS011;62994;52.126;5.596;2022-08-19T03:23:06;7.68;;;7.15;;
17564;SDS011;62994;52.126;5.596;2022-08-19T03:25:35;8.10;;;7.70;;
17564;SDS011;62994;52.126;5.596;2022-08-19T03:28:03;6.88;;;6.57;;
17564;SDS011;62994;52.126;5.596;2022-08-19T03:30:30;7.75;;;7.43;;
17564;SDS011;62994;52.126;5.596;2022-08-19T03:32:57;9.65;;;7.82;;
17564;SDS011;62994;52.126;5.596;2022-08-19T03:35:24;7.75;;;7.15;;
17564;SDS011;62994;52.126;5.596;2022-08-19T03:37:53;7.32;;;6.68;;
17564;SDS011;62994;52.126;5.596;2022-08-19T03:40:21;8.30;;;7.90;;
17564;SDS011;62994;52.126;5.596;2022-08-19T03:42:48;8.30;;;7.60;;
17564;SDS011;62994;52.126;5.596;2022-08-19T03:45:15;9.70;;;9.20;;
17564;SDS011;62994;52.126;5.596;2022-08-19T03:47:42;10.02;;;9.45;;
17564;SDS011;62994;52.126;5.596;2022-08-19T03:50:10;10.20;;;9.30;;
17564;SDS011;62994;52.126;5.596;2022-08-19T03:52:37;10.95;;;9.02;;
17564;SDS011;62994;52.126;5.596;2022-08-19T03:55:06;10.80;;;9.90;;
17564;SDS011;62994;52.126;5.596;2022-08-19T03:57:34;10.70;;;10.02;;
17564;SDS011;62994;52.126;5.596;2022-08-19T04:00:00;10.52;;;9.68;;
17564;SDS011;62994;52.126;5.596;2022-08-19T04:02:30;9.43;;;8.93;;
17564;SDS011;62994;52.126;5.596;2022-08-19T04:04:57;8.93;;;8.38;;
17564;SDS011;62994;52.126;5.596;2022-08-19T04:07:24;9.25;;;8.73;;
17564;SDS011;62994;52.126;5.596;2022-08-19T04:09:51;8.35;;;7.95;;
17564;SDS011;62994;52.126;5.596;2022-08-19T04:12:20;9.23;;;8.50;;
17564;SDS011;62994;52.126;5.596;2022-08-19T04:14:47;10.15;;;9.52;;
17564;SDS011;62994;52.126;5.596;2022-08-19T04:17:14;12.30;;;8.82;;
17564;SDS011;62994;52.126;5.596;2022-08-19T04:19:41;9.60;;;8.80;;
17564;SDS011;62994;52.126;5.596;2022-08-19T04:22:08;10.50;;;8.73;;
17564;SDS011;62994;52.126;5.596;2022-08-19T04:24:36;9.13;;;8.45;;
17564;SDS011;62994;52.126;5.596;2022-08-19T04:27:03;10.15;;;8.85;;
17564;SDS011;62994;52.126;5.596;2022-08-19T04:29:33;14.98;;;10.80;;
17564;SDS011;62994;52.126;5.596;2022-08-19T04:32:00;9.90;;;9.20;;
17564;SDS011;62994;52.126;5.596;2022-08-19T04:34:28;10.88;;;8.90;;
17564;SDS011;62994;52.126;5.596;2022-08-19T04:36:56;10.20;;;9.27;;
17564;SDS011;62994;52.126;5.596;2022-08-19T04:39:25;10.32;;;9.07;;
17564;SDS011;62994;52.126;5.596;2022-08-19T04:42:14;9.73;;;8.95;;
17564;SDS011;62994;52.126;5.596;2022-08-19T04:45:01;11.38;;;9.00;;
17564;SDS011;62994;52.126;5.596;2022-08-19T04:47:29;10.07;;;9.32;;
17564;SDS011;62994;52.126;5.596;2022-08-19T04:49:57;10.13;;;9.45;;
17564;SDS011;62994;52.126;5.596;2022-08-19T04:52:24;10.82;;;10.00;;
17564;SDS011;62994;52.126;5.596;2022-08-19T04:54:51;11.00;;;10.32;;
17564;SDS011;62994;52.126;5.596;2022-08-19T04:57:20;12.07;;;11.00;;
17564;SDS011;62994;52.126;5.596;2022-08-19T04:59:47;10.30;;;9.70;;
17564;SDS011;62994;52.126;5.596;2022-08-19T05:02:16;10.85;;;10.18;;
17564;SDS011;62994;52.126;5.596;2022-08-19T05:04:43;9.43;;;8.65;;
17564;SDS011;62994;52.126;5.596;2022-08-19T05:07:10;9.93;;;9.38;;
17564;SDS011;62994;52.126;5.596;2022-08-19T05:09:37;10.73;;;9.85;;
17564;SDS011;62994;52.126;5.596;2022-08-19T05:12:04;10.07;;;9.52;;
17564;SDS011;62994;52.126;5.596;2022-08-19T05:14:32;10.05;;;9.15;;
17564;SDS011;62994;52.126;5.596;2022-08-19T05:17:00;11.00;;;10.23;;
17564;SDS011;62994;52.126;5.596;2022-08-19T05:19:28;12.05;;;10.95;;
17564;SDS011;62994;52.126;5.596;2022-08-19T05:22:13;11.57;;;10.70;;
17564;SDS011;62994;52.126;5.596;2022-08-19T05:24:59;11.38;;;10.68;;
17564;SDS011;62994;52.126;5.596;2022-08-19T05:27:27;10.40;;;9.80;;
17564;SDS011;62994;52.126;5.596;2022-08-19T05:29:54;11.73;;;10.52;;
17564;SDS011;62994;52.126;5.596;2022-08-19T05:32:21;12.02;;;10.90;;
17564;SDS011;62994;52.126;5.596;2022-08-19T05:34:49;12.05;;;11.13;;
17564;SDS011;62994;52.126;5.596;2022-08-19T05:37:19;12.82;;;11.65;;
17564;SDS011;62994;52.126;5.596;2022-08-19T05:39:46;12.93;;;11.80;;
17564;SDS011;62994;52.126;5.596;2022-08-19T05:42:14;18.83;;;12.13;;
17564;SDS011;62994;52.126;5.596;2022-08-19T05:44:42;11.60;;;10.98;;
17564;SDS011;62994;52.126;5.596;2022-08-19T05:47:10;11.95;;;11.02;;
17564;SDS011;62994;52.126;5.596;2022-08-19T05:49:40;14.43;;;13.23;;
17564;SDS011;62994;52.126;5.596;2022-08-19T05:52:10;13.88;;;12.65;;
17564;SDS011;62994;52.126;5.596;2022-08-19T05:54:38;15.50;;;13.93;;
17564;SDS011;62994;52.126;5.596;2022-08-19T05:57:06;19.63;;;14.57;;
17564;SDS011;62994;52.126;5.596;2022-08-19T05:59:34;18.60;;;16.70;;
17564;SDS011;62994;52.126;5.596;2022-08-19T06:02:02;21.33;;;17.10;;
17564;SDS011;62994;52.126;5.596;2022-08-19T06:04:31;20.00;;;15.43;;
17564;SDS011;62994;52.126;5.596;2022-08-19T06:06:58;28.90;;;18.63;;
17564;SDS011;62994;52.126;5.596;2022-08-19T06:09:28;27.13;;;20.00;;
17564;SDS011;62994;52.126;5.596;2022-08-19T06:11:56;25.90;;;20.40;;
17564;SDS011;62994;52.126;5.596;2022-08-19T06:14:26;30.13;;;20.48;;
17564;SDS011;62994;52.126;5.596;2022-08-19T06:16:54;24.95;;;19.88;;
17564;SDS011;62994;52.126;5.596;2022-08-19T06:19:22;37.53;;;23.60;;
17564;SDS011;62994;52.126;5.596;2022-08-19T06:21:51;32.03;;;22.42;;
17564;SDS011;62994;52.126;5.596;2022-08-19T06:24:19;34.40;;;23.17;;
17564;SDS011;62994;52.126;5.596;2022-08-19T06:26:51;37.72;;;23.83;;
17564;SDS011;62994;52.126;5.596;2022-08-19T06:29:20;31.65;;;23.35;;
17564;SDS011;62994;52.126;5.596;2022-08-19T06:31:50;33.95;;;23.38;;
17564;SDS011;62994;52.126;5.596;2022-08-19T06:34:18;35.45;;;22.85;;
17564;SDS011;62994;52.126;5.596;2022-08-19T06:36:46;32.55;;;23.50;;
17564;SDS011;62994;52.126;5.596;2022-08-19T06:39:16;31.98;;;23.05;;
17564;SDS011;62994;52.126;5.596;2022-08-19T06:41:45;44.22;;;24.92;;
17564;SDS011;62994;52.126;5.596;2022-08-19T06:44:15;40.20;;;25.73;;
17564;SDS011;62994;52.126;5.596;2022-08-19T06:46:43;44.22;;;24.92;;
17564;SDS011;62994;52.126;5.596;2022-08-19T06:49:10;52.20;;;28.25;;
17564;SDS011;62994;52.126;5.596;2022-08-19T06:51:39;50.72;;;28.92;;
17564;SDS011;62994;52.126;5.596;2022-08-19T06:54:07;49.33;;;30.05;;
17564;SDS011;62994;52.126;5.596;2022-08-19T06:56:34;54.58;;;32.33;;
17564;SDS011;62994;52.126;5.596;2022-08-19T06:59:02;51.22;;;31.70;;
17564;SDS011;62994;52.126;5.596;2022-08-19T07:01:33;55.47;;;32.30;;
17564;SDS011;62994;52.126;5.596;2022-08-19T07:04:03;51.25;;;31.23;;
17564;SDS011;62994;52.126;5.596;2022-08-19T07:06:31;52.67;;;32.58;;
17564;SDS011;62994;52.126;5.596;2022-08-19T07:08:59;51.45;;;31.98;;
17564;SDS011;62994;52.126;5.596;2022-08-19T07:11:26;51.42;;;34.97;;
17564;SDS011;62994;52.126;5.596;2022-08-19T07:13:53;54.30;;;37.03;;
17564;SDS011;62994;52.126;5.596;2022-08-19T07:16:20;55.28;;;36.03;;
17564;SDS011;62994;52.126;5.596;2022-08-19T07:18:49;55.92;;;36.55;;
17564;SDS011;62994;52.126;5.596;2022-08-19T07:21:17;62.80;;;38.35;;
17564;SDS011;62994;52.126;5.596;2022-08-19T07:23:47;55.72;;;36.38;;
17564;SDS011;62994;52.126;5.596;2022-08-19T07:26:15;55.13;;;35.65;;
17564;SDS011;62994;52.126;5.596;2022-08-19T07:28:45;52.90;;;34.28;;
17564;SDS011;62994;52.126;5.596;2022-08-19T07:31:14;58.05;;;35.88;;
17564;SDS011;62994;52.126;5.596;2022-08-19T07:33:43;57.08;;;35.58;;
17564;SDS011;62994;52.126;5.596;2022-08-19T07:36:12;54.45;;;34.72;;
17564;SDS011;62994;52.126;5.596;2022-08-19T07:38:41;58.22;;;33.00;;
17564;SDS011;62994;52.126;5.596;2022-08-19T07:41:11;51.00;;;32.47;;
17564;SDS011;62994;52.126;5.596;2022-08-19T07:43:39;58.08;;;33.95;;
17564;SDS011;62994;52.126;5.596;2022-08-19T07:46:08;52.17;;;33.33;;
17564;SDS011;62994;52.126;5.596;2022-08-19T07:48:37;55.85;;;34.83;;
17564;SDS011;62994;52.126;5.596;2022-08-19T07:51:05;53.78;;;31.50;;
17564;SDS011;62994;52.126;5.596;2022-08-19T07:53:35;57.40;;;33.92;;
17564;SDS011;62994;52.126;5.596;2022-08-19T07:56:03;53.75;;;32.90;;
17564;SDS011;62994;52.126;5.596;2022-08-19T07:58:31;51.78;;;32.67;;
17564;SDS011;62994;52.126;5.596;2022-08-19T08:00:59;51.42;;;33.90;;
17564;SDS011;62994;52.126;5.596;2022-08-19T08:03:27;55.38;;;35.20;;
17564;SDS011;62994;52.126;5.596;2022-08-19T08:06:08;45.25;;;30.85;;
17564;SDS011;62994;52.126;5.596;2022-08-19T08:08:54;46.72;;;32.53;;
17564;SDS011;62994;52.126;5.596;2022-08-19T08:11:34;45.38;;;32.45;;
17564;SDS011;62994;52.126;5.596;2022-08-19T08:14:01;48.88;;;34.03;;
17564;SDS011;62994;52.126;5.596;2022-08-19T08:16:30;53.17;;;34.70;;
17564;SDS011;62994;52.126;5.596;2022-08-19T08:18:59;44.30;;;31.45;;
17564;SDS011;62994;52.126;5.596;2022-08-19T08:21:26;43.58;;;30.65;;
17564;SDS011;62994;52.126;5.596;2022-08-19T08:23:55;42.47;;;30.30;;
17564;SDS011;62994;52.126;5.596;2022-08-19T08:26:22;47.00;;;31.65;;
17564;SDS011;62994;52.126;5.596;2022-08-19T08:28:50;40.70;;;28.35;;
17564;SDS011;62994;52.126;5.596;2022-08-19T08:31:16;40.60;;;29.35;;
17564;SDS011;62994;52.126;5.596;2022-08-19T08:33:44;42.65;;;30.25;;
17564;SDS011;62994;52.126;5.596;2022-08-19T08:36:12;37.03;;;27.45;;
17564;SDS011;62994;52.126;5.596;2022-08-19T08:38:40;43.38;;;29.15;;
17564;SDS011;62994;52.126;5.596;2022-08-19T08:41:13;42.13;;;27.05;;
17564;SDS011;62994;52.126;5.596;2022-08-19T08:43:49;36.38;;;26.55;;
17564;SDS011;62994;52.126;5.596;2022-08-19T08:46:19;35.85;;;25.98;;
17564;SDS011;62994;52.126;5.596;2022-08-19T08:48:51;32.63;;;25.40;;
17564;SDS011;62994;52.126;5.596;2022-08-19T08:51:25;35.10;;;25.45;;
17564;SDS011;62994;52.126;5.596;2022-08-19T08:53:58;33.67;;;26.40;;
17564;SDS011;62994;52.126;5.596;2022-08-19T08:56:27;30.42;;;24.50;;
17564;SDS011;62994;52.126;5.596;2022-08-19T08:58:56;36.90;;;26.77;;
17564;SDS011;62994;52.126;5.596;2022-08-19T09:01:26;31.23;;;24.58;;
17564;SDS011;62994;52.126;5.596;2022-08-19T09:03:53;30.85;;;24.23;;
17564;SDS011;62994;52.126;5.596;2022-08-19T09:06:22;28.83;;;24.50;;
17564;SDS011;62994;52.126;5.596;2022-08-19T09:08:59;30.65;;;22.25;;
17564;SDS011;62994;52.126;5.596;2022-08-19T09:11:35;29.02;;;23.10;;
17564;SDS011;62994;52.126;5.596;2022-08-19T09:14:14;28.40;;;21.75;;
17564;SDS011;62994;52.126;5.596;2022-08-19T09:16:50;22.98;;;20.52;;
17564;SDS011;62994;52.126;5.596;2022-08-19T09:19:16;22.90;;;20.48;;
17564;SDS011;62994;52.126;5.596;2022-08-19T09:21:43;23.27;;;20.77;;
17564;SDS011;62994;52.126;5.596;2022-08-19T09:24:11;25.10;;;20.92;;
17564;SDS011;62994;52.126;5.596;2022-08-19T09:26:39;26.80;;;20.38;;
17564;SDS011;62994;52.126;5.596;2022-08-19T09:29:08;30.35;;;22.38;;
17564;SDS011;62994;52.126;5.596;2022-08-19T09:31:36;23.23;;;20.30;;
17564;SDS011;62994;52.126;5.596;2022-08-19T09:34:03;22.58;;;18.52;;
17564;SDS011;62994;52.126;5.596;2022-08-19T09:36:30;27.48;;;20.67;;
17564;SDS011;62994;52.126;5.596;2022-08-19T09:38:58;28.45;;;23.63;;
17564;SDS011;62994;52.126;5.596;2022-08-19T09:41:26;23.25;;;20.15;;
17564;SDS011;62994;52.126;5.596;2022-08-19T09:43:55;24.17;;;21.73;;
17564;SDS011;62994;52.126;5.596;2022-08-19T09:46:23;26.50;;;20.92;;
17564;SDS011;62994;52.126;5.596;2022-08-19T09:48:52;24.35;;;21.13;;
17564;SDS011;62994;52.126;5.596;2022-08-19T09:51:23;22.63;;;20.17;;
17564;SDS011;62994;52.126;5.596;2022-08-19T09:53:53;21.75;;;19.42;;
17564;SDS011;62994;52.126;5.596;2022-08-19T09:56:22;20.08;;;17.80;;
17564;SDS011;62994;52.126;5.596;2022-08-19T09:58:49;18.33;;;16.52;;
17564;SDS011;62994;52.126;5.596;2022-08-19T10:01:18;21.30;;;17.40;;
17564;SDS011;62994;52.126;5.596;2022-08-19T10:03:48;20.55;;;17.20;;
17564;SDS011;62994;52.126;5.596;2022-08-19T10:06:17;18.35;;;16.42;;
17564;SDS011;62994;52.126;5.596;2022-08-19T10:08:44;19.50;;;16.08;;
17564;SDS011;62994;52.126;5.596;2022-08-19T10:11:12;21.95;;;15.95;;
17564;SDS011;62994;52.126;5.596;2022-08-19T10:13:42;19.65;;;16.13;;
17564;SDS011;62994;52.126;5.596;2022-08-19T10:16:10;18.13;;;16.20;;
17564;SDS011;62994;52.126;5.596;2022-08-19T10:18:40;17.90;;;16.20;;
17564;SDS011;62994;52.126;5.596;2022-08-19T10:21:09;20.38;;;15.45;;
17564;SDS011;62994;52.126;5.596;2022-08-19T10:23:39;17.73;;;14.80;;
17564;SDS011;62994;52.126;5.596;2022-08-19T10:26:08;19.35;;;15.52;;
17564;SDS011;62994;52.126;5.596;2022-08-19T10:28:38;17.48;;;15.57;;
17564;SDS011;62994;52.126;5.596;2022-08-19T10:31:06;17.55;;;15.77;;
17564;SDS011;62994;52.126;5.596;2022-08-19T10:33:35;15.77;;;14.35;;
17564;SDS011;62994;52.126;5.596;2022-08-19T10:36:06;13.80;;;12.63;;
17564;SDS011;62994;52.126;5.596;2022-08-19T10:38:35;14.70;;;13.48;;
17564;SDS011;62994;52.126;5.596;2022-08-19T10:41:08;15.13;;;13.13;;
17564;SDS011;62994;52.126;5.596;2022-08-19T10:43:37;16.23;;;14.65;;
17564;SDS011;62994;52.126;5.596;2022-08-19T10:46:05;17.45;;;15.68;;
17564;SDS011;62994;52.126;5.596;2022-08-19T10:48:35;18.58;;;14.45;;
17564;SDS011;62994;52.126;5.596;2022-08-19T10:51:03;16.52;;;14.68;;
17564;SDS011;62994;52.126;5.596;2022-08-19T10:53:50;14.48;;;13.38;;
17564;SDS011;62994;52.126;5.596;2022-08-19T10:56:17;13.88;;;12.63;;
17564;SDS011;62994;52.126;5.596;2022-08-19T10:59:03;13.82;;;12.55;;
17564;SDS011;62994;52.126;5.596;2022-08-19T11:01:31;14.52;;;13.15;;
17564;SDS011;62994;52.126;5.596;2022-08-19T11:04:00;15.82;;;14.40;;
17564;SDS011;62994;52.126;5.596;2022-08-19T11:06:27;14.35;;;12.82;;
17564;SDS011;62994;52.126;5.596;2022-08-19T11:08:56;16.67;;;15.00;;
17564;SDS011;62994;52.126;5.596;2022-08-19T11:11:25;14.73;;;13.45;;
17564;SDS011;62994;52.126;5.596;2022-08-19T11:13:53;16.60;;;15.00;;
17564;SDS011;62994;52.126;5.596;2022-08-19T11:16:21;17.88;;;16.20;;
17564;SDS011;62994;52.126;5.596;2022-08-19T11:18:50;15.30;;;14.05;;
17564;SDS011;62994;52.126;5.596;2022-08-19T11:21:19;16.02;;;14.68;;
17564;SDS011;62994;52.126;5.596;2022-08-19T11:23:49;21.08;;;17.30;;
17564;SDS011;62994;52.126;5.596;2022-08-19T11:26:19;18.05;;;16.45;;
17564;SDS011;62994;52.126;5.596;2022-08-19T11:28:47;15.35;;;14.30;;
17564;SDS011;62994;52.126;5.596;2022-08-19T11:31:17;17.88;;;16.40;;
17564;SDS011;62994;52.126;5.596;2022-08-19T11:33:46;25.15;;;18.55;;
17564;SDS011;62994;52.126;5.596;2022-08-19T11:36:16;21.42;;;19.10;;
17564;SDS011;62994;52.126;5.596;2022-08-19T11:38:44;19.65;;;18.13;;
17564;SDS011;62994;52.126;5.596;2022-08-19T11:41:13;20.63;;;18.08;;
17564;SDS011;62994;52.126;5.596;2022-08-19T11:43:43;21.13;;;19.35;;
17564;SDS011;62994;52.126;5.596;2022-08-19T11:46:13;24.13;;;20.35;;
17564;SDS011;62994;52.126;5.596;2022-08-19T11:48:43;22.30;;;20.08;;
17564;SDS011;62994;52.126;5.596;2022-08-19T11:51:11;23.50;;;21.00;;
17564;SDS011;62994;52.126;5.596;2022-08-19T11:53:40;25.38;;;22.63;;
17564;SDS011;62994;52.126;5.596;2022-08-19T11:56:08;26.45;;;22.35;;
17564;SDS011;62994;52.126;5.596;2022-08-19T11:58:36;22.52;;;20.25;;
17564;SDS011;62994;52.126;5.596;2022-08-19T12:01:07;24.80;;;22.20;;
17564;SDS011;62994;52.126;5.596;2022-08-19T12:03:41;21.67;;;19.60;;
17564;SDS011;62994;52.126;5.596;2022-08-19T12:06:12;24.33;;;19.63;;
17564;SDS011;62994;52.126;5.596;2022-08-19T12:08:41;22.42;;;20.20;;
17564;SDS011;62994;52.126;5.596;2022-08-19T12:11:09;26.05;;;23.45;;
17564;SDS011;62994;52.126;5.596;2022-08-19T12:13:38;19.67;;;17.58;;
17564;SDS011;62994;52.126;5.596;2022-08-19T12:16:08;23.80;;;18.55;;
17564;SDS011;62994;52.126;5.596;2022-08-19T12:18:37;23.48;;;20.90;;
17564;SDS011;62994;52.126;5.596;2022-08-19T12:21:04;19.35;;;17.70;;
17564;SDS011;62994;52.126;5.596;2022-08-19T12:23:31;24.45;;;22.02;;
17564;SDS011;62994;52.126;5.596;2022-08-19T12:25:58;22.35;;;20.17;;
17564;SDS011;62994;52.126;5.596;2022-08-19T12:28:25;25.88;;;23.35;;
17564;SDS011;62994;52.126;5.596;2022-08-19T12:30:52;20.80;;;18.90;;
17564;SDS011;62994;52.126;5.596;2022-08-19T12:33:21;23.60;;;21.45;;
17564;SDS011;62994;52.126;5.596;2022-08-19T12:35:51;20.80;;;18.88;;
17564;SDS011;62994;52.126;5.596;2022-08-19T12:38:18;23.77;;;21.40;;
17564;SDS011;62994;52.126;5.596;2022-08-19T12:40:49;20.45;;;18.60;;
17564;SDS011;62994;52.126;5.596;2022-08-19T12:43:17;26.20;;;23.50;;
17564;SDS011;62994;52.126;5.596;2022-08-19T12:45:45;26.55;;;22.27;;
17564;SDS011;62994;52.126;5.596;2022-08-19T12:48:12;23.45;;;21.15;;
17564;SDS011;62994;52.126;5.596;2022-08-19T12:50:41;23.75;;;21.50;;
17564;SDS011;62994;52.126;5.596;2022-08-19T12:53:09;23.10;;;20.80;;
17564;SDS011;62994;52.126;5.596;2022-08-19T12:55:36;25.67;;;22.88;;
17564;SDS011;62994;52.126;5.596;2022-08-19T12:58:04;23.48;;;20.75;;
17564;SDS011;62994;52.126;5.596;2022-08-19T13:00:31;25.67;;;22.70;;
17564;SDS011;62994;52.126;5.596;2022-08-19T13:02:58;24.77;;;22.17;;
17564;SDS011;62994;52.126;5.596;2022-08-19T13:05:27;25.50;;;22.95;;
17564;SDS011;62994;52.126;5.596;2022-08-19T13:07:57;24.17;;;21.58;;
17564;SDS011;62994;52.126;5.596;2022-08-19T13:10:28;25.27;;;22.58;;
17564;SDS011;62994;52.126;5.596;2022-08-19T13:13:00;23.75;;;21.20;;
17564;SDS011;62994;52.126;5.596;2022-08-19T13:15:28;26.13;;;22.65;;
17564;SDS011;62994;52.126;5.596;2022-08-19T13:17:56;31.30;;;24.52;;
17564;SDS011;62994;52.126;5.596;2022-08-19T13:20:24;23.27;;;21.17;;
17564;SDS011;62994;52.126;5.596;2022-08-19T13:22:51;25.25;;;22.40;;
17564;SDS011;62994;52.126;5.596;2022-08-19T13:25:20;23.70;;;21.13;;
17564;SDS011;62994;52.126;5.596;2022-08-19T13:27:50;22.33;;;20.23;;
17564;SDS011;62994;52.126;5.596;2022-08-19T13:30:20;21.25;;;19.48;;
17564;SDS011;62994;52.126;5.596;2022-08-19T13:33:05;22.38;;;20.02;;
17564;SDS011;62994;52.126;5.596;2022-08-19T13:35:37;28.15;;;22.88;;
17564;SDS011;62994;52.126;5.596;2022-08-19T13:38:04;30.20;;;24.85;;
17564;SDS011;62994;52.126;5.596;2022-08-19T13:40:32;27.17;;;24.27;;
17564;SDS011;62994;52.126;5.596;2022-08-19T13:43:01;29.48;;;26.40;;
17564;SDS011;62994;52.126;5.596;2022-08-19T13:45:29;29.90;;;26.70;;
17564;SDS011;62994;52.126;5.596;2022-08-19T13:47:59;32.03;;;28.65;;
17564;SDS011;62994;52.126;5.596;2022-08-19T13:50:29;30.60;;;26.73;;
17564;SDS011;62994;52.126;5.596;2022-08-19T13:52:57;31.85;;;28.30;;
17564;SDS011;62994;52.126;5.596;2022-08-19T13:55:25;27.85;;;25.23;;
17564;SDS011;62994;52.126;5.596;2022-08-19T13:57:55;27.70;;;24.88;;
17564;SDS011;62994;52.126;5.596;2022-08-19T14:00:25;27.88;;;24.95;;
17564;SDS011;62994;52.126;5.596;2022-08-19T14:02:54;28.58;;;25.50;;
17564;SDS011;62994;52.126;5.596;2022-08-19T14:05:24;36.13;;;28.80;;
17564;SDS011;62994;52.126;5.596;2022-08-19T14:07:53;34.33;;;29.50;;
17564;SDS011;62994;52.126;5.596;2022-08-19T14:10:21;30.80;;;27.85;;
17564;SDS011;62994;52.126;5.596;2022-08-19T14:12:49;31.20;;;27.92;;
17564;SDS011;62994;52.126;5.596;2022-08-19T14:15:27;38.40;;;31.95;;
17564;SDS011;62994;52.126;5.596;2022-08-19T14:17:55;47.92;;;33.30;;
17564;SDS011;62994;52.126;5.596;2022-08-19T14:20:22;39.58;;;32.90;;
17564;SDS011;62994;52.126;5.596;2022-08-19T14:22:56;54.90;;;35.28;;
17564;SDS011;62994;52.126;5.596;2022-08-19T14:25:27;41.95;;;32.88;;
17564;SDS011;62994;52.126;5.596;2022-08-19T14:27:56;36.15;;;29.38;;
17564;SDS011;62994;52.126;5.596;2022-08-19T14:30:31;30.73;;;27.52;;
17564;SDS011;62994;52.126;5.596;2022-08-19T14:33:00;28.23;;;24.77;;
17564;SDS011;62994;52.126;5.596;2022-08-19T14:35:32;28.95;;;25.25;;
17564;SDS011;62994;52.126;5.596;2022-08-19T14:38:02;32.72;;;28.05;;
17564;SDS011;62994;52.126;5.596;2022-08-19T14:40:30;32.05;;;28.65;;